sensor_id;sensor_type;location;lat;lon;timestamp;P1;durP1;ratioP1;P2;durP2;ratioP2
38529;SDS011;24301;54.332;48.386;2022-12-18T00:01:57;1009.37;;;122.00;;
38529;SDS011;24301;54.332;48.386;2022-12-18T00:04:27;750.00;;;94.43;;
38529;SDS011;24301;54.332;48.386;2022-12-18T00:06:53;793.93;;;87.80;;
38529;SDS011;24301;54.332;48.386;2022-12-18T00:09:19;907.17;;;104.43;;
38529;SDS011;24301;54.332;48.386;2022-12-18T00:11:45;957.70;;;121.33;;
38529;SDS011;24301;54.332;48.386;2022-12-18T00:14:12;1293.47;;;150.33;;
38529;SDS011;24301;54.332;48.386;2022-12-18T00:16:38;1310.00;;;160.67;;
38529;SDS011;24301;54.332;48.386;2022-12-18T00:19:05;1245.13;;;145.47;;
38529;SDS011;24301;54.332;48.386;2022-12-18T00:21:33;730.73;;;85.20;;
38529;SDS011;24301;54.332;48.386;2022-12-18T00:23:59;724.07;;;84.27;;
38529;SDS011;24301;54.332;48.386;2022-12-18T00:26:26;1244.13;;;150.40;;
38529;SDS011;24301;54.332;48.386;2022-12-18T00:29:00;951.70;;;115.43;;
38529;SDS011;24301;54.332;48.386;2022-12-18T00:31:30;841.87;;;101.67;;
38529;SDS011;24301;54.332;48.386;2022-12-18T00:33:57;971.20;;;117.70;;
38529;SDS011;24301;54.332;48.386;2022-12-18T00:36:25;856.90;;;103.37;;
38529;SDS011;24301;54.332;48.386;2022-12-18T00:38:53;1090.90;;;132.10;;
38529;SDS011;24301;54.332;48.386;2022-12-18T00:41:20;1072.07;;;127.63;;
38529;SDS011;24301;54.332;48.386;2022-12-18T00:44:06;933.50;;;110.80;;
38529;SDS011;24301;54.332;48.386;2022-12-18T00:46:34;1197.20;;;141.13;;
38529;SDS011;24301;54.332;48.386;2022-12-18T00:49:00;972.53;;;121.73;;
38529;SDS011;24301;54.332;48.386;2022-12-18T00:51:26;1026.87;;;124.20;;
38529;SDS011;24301;54.332;48.386;2022-12-18T00:53:53;873.63;;;105.40;;
38529;SDS011;24301;54.332;48.386;2022-12-18T00:56:22;814.43;;;95.43;;
38529;SDS011;24301;54.332;48.386;2022-12-18T00:58:48;999.70;;;113.03;;
38529;SDS011;24301;54.332;48.386;2022-12-18T01:01:14;1042.57;;;126.40;;
38529;SDS011;24301;54.332;48.386;2022-12-18T01:03:40;1012.20;;;118.60;;
38529;SDS011;24301;54.332;48.386;2022-12-18T01:06:07;856.43;;;91.07;;
38529;SDS011;24301;54.332;48.386;2022-12-18T01:08:34;880.60;;;96.50;;
38529;SDS011;24301;54.332;48.386;2022-12-18T01:11:01;842.33;;;100.53;;
38529;SDS011;24301;54.332;48.386;2022-12-18T01:13:33;1204.47;;;156.10;;
38529;SDS011;24301;54.332;48.386;2022-12-18T01:15:59;1029.97;;;126.77;;
38529;SDS011;24301;54.332;48.386;2022-12-18T01:18:24;1184.70;;;147.70;;
38529;SDS011;24301;54.332;48.386;2022-12-18T01:20:50;1011.00;;;127.37;;
38529;SDS011;24301;54.332;48.386;2022-12-18T01:23:16;1010.20;;;128.83;;
38529;SDS011;24301;54.332;48.386;2022-12-18T01:25:42;648.00;;;77.23;;
38529;SDS011;24301;54.332;48.386;2022-12-18T01:28:08;799.67;;;96.37;;
38529;SDS011;24301;54.332;48.386;2022-12-18T01:30:34;773.43;;;93.03;;
38529;SDS011;24301;54.332;48.386;2022-12-18T01:33:00;757.07;;;93.17;;
38529;SDS011;24301;54.332;48.386;2022-12-18T01:35:26;846.10;;;108.57;;
38529;SDS011;24301;54.332;48.386;2022-12-18T01:37:55;1036.60;;;129.50;;
38529;SDS011;24301;54.332;48.386;2022-12-18T01:40:22;672.20;;;77.67;;
38529;SDS011;24301;54.332;48.386;2022-12-18T01:42:54;608.50;;;72.70;;
38529;SDS011;24301;54.332;48.386;2022-12-18T01:45:30;374.47;;;41.70;;
38529;SDS011;24301;54.332;48.386;2022-12-18T01:48:03;918.43;;;112.50;;
38529;SDS011;24301;54.332;48.386;2022-12-18T01:50:33;923.47;;;113.90;;
38529;SDS011;24301;54.332;48.386;2022-12-18T01:55:53;850.72;;;104.22;;
38529;SDS011;24301;54.332;48.386;2022-12-18T01:59:08;826.80;;;93.60;;
38529;SDS011;24301;54.332;48.386;2022-12-18T02:01:13;770.97;;;81.87;;
38529;SDS011;24301;54.332;48.386;2022-12-18T02:03:43;725.37;;;87.73;;
38529;SDS011;24301;54.332;48.386;2022-12-18T02:06:33;556.93;;;58.50;;
38529;SDS011;24301;54.332;48.386;2022-12-18T02:09:13;723.93;;;75.23;;
38529;SDS011;24301;54.332;48.386;2022-12-18T02:14:48;1106.47;;;138.33;;
38529;SDS011;24301;54.332;48.386;2022-12-18T02:17:20;880.87;;;110.73;;
38529;SDS011;24301;54.332;48.386;2022-12-18T02:28:27;1104.53;;;144.47;;
38529;SDS011;24301;54.332;48.386;2022-12-18T02:31:00;1074.80;;;132.25;;
38529;SDS011;24301;54.332;48.386;2022-12-18T02:33:29;1078.97;;;142.67;;
38529;SDS011;24301;54.332;48.386;2022-12-18T02:35:57;722.43;;;84.90;;
38529;SDS011;24301;54.332;48.386;2022-12-18T02:38:26;791.50;;;97.60;;
38529;SDS011;24301;54.332;48.386;2022-12-18T02:40:57;695.70;;;77.00;;
38529;SDS011;24301;54.332;48.386;2022-12-18T02:43:25;880.63;;;110.90;;
38529;SDS011;24301;54.332;48.386;2022-12-18T02:48:30;792.83;;;104.50;;
38529;SDS011;24301;54.332;48.386;2022-12-18T02:53:37;714.13;;;94.47;;
38529;SDS011;24301;54.332;48.386;2022-12-18T02:56:14;616.30;;;76.70;;
38529;SDS011;24301;54.332;48.386;2022-12-18T02:59:13;644.63;;;79.90;;
38529;SDS011;24301;54.332;48.386;2022-12-18T03:02:00;850.60;;;104.87;;
38529;SDS011;24301;54.332;48.386;2022-12-18T03:04:38;710.10;;;89.13;;
38529;SDS011;24301;54.332;48.386;2022-12-18T03:07:11;735.53;;;93.57;;
38529;SDS011;24301;54.332;48.386;2022-12-18T03:09:45;694.83;;;85.37;;
38529;SDS011;24301;54.332;48.386;2022-12-18T03:12:23;582.97;;;70.00;;
38529;SDS011;24301;54.332;48.386;2022-12-18T03:15:04;868.57;;;118.80;;
38529;SDS011;24301;54.332;48.386;2022-12-18T03:23:50;967.93;;;126.67;;
38529;SDS011;24301;54.332;48.386;2022-12-18T03:26:21;695.50;;;88.83;;
38529;SDS011;24301;54.332;48.386;2022-12-18T03:28:55;829.88;;;103.53;;
38529;SDS011;24301;54.332;48.386;2022-12-18T03:31:28;701.97;;;97.23;;
38529;SDS011;24301;54.332;48.386;2022-12-18T03:33:57;910.80;;;115.70;;
38529;SDS011;24301;54.332;48.386;2022-12-18T03:36:36;921.70;;;122.23;;
38529;SDS011;24301;54.332;48.386;2022-12-18T03:39:02;693.83;;;81.37;;
38529;SDS011;24301;54.332;48.386;2022-12-18T03:59:07;159.57;;;27.23;;
38529;SDS011;24301;54.332;48.386;2022-12-18T04:01:40;322.93;;;41.43;;
38529;SDS011;24301;54.332;48.386;2022-12-18T04:04:10;326.23;;;44.07;;
38529;SDS011;24301;54.332;48.386;2022-12-18T04:06:40;372.10;;;44.57;;
38529;SDS011;24301;54.332;48.386;2022-12-18T04:09:09;449.03;;;58.87;;
38529;SDS011;24301;54.332;48.386;2022-12-18T04:11:42;427.70;;;49.90;;
38529;SDS011;24301;54.332;48.386;2022-12-18T04:16:39;787.60;;;94.87;;
38529;SDS011;24301;54.332;48.386;2022-12-18T04:19:08;356.40;;;38.23;;
38529;SDS011;24301;54.332;48.386;2022-12-18T04:21:38;866.43;;;107.93;;
38529;SDS011;24301;54.332;48.386;2022-12-18T04:24:05;1122.43;;;145.87;;
38529;SDS011;24301;54.332;48.386;2022-12-18T04:26:33;1236.47;;;161.60;;
38529;SDS011;24301;54.332;48.386;2022-12-18T04:29:28;926.93;;;119.20;;
38529;SDS011;24301;54.332;48.386;2022-12-18T04:31:54;714.47;;;93.20;;
38529;SDS011;24301;54.332;48.386;2022-12-18T04:34:20;872.57;;;115.00;;
38529;SDS011;24301;54.332;48.386;2022-12-18T04:36:49;831.97;;;99.13;;
38529;SDS011;24301;54.332;48.386;2022-12-18T04:39:17;1013.40;;;129.00;;
38529;SDS011;24301;54.332;48.386;2022-12-18T04:41:44;909.83;;;115.40;;
38529;SDS011;24301;54.332;48.386;2022-12-18T04:44:11;782.40;;;98.00;;
38529;SDS011;24301;54.332;48.386;2022-12-18T04:46:37;846.07;;;95.57;;
38529;SDS011;24301;54.332;48.386;2022-12-18T04:49:03;501.80;;;56.93;;
38529;SDS011;24301;54.332;48.386;2022-12-18T04:51:29;796.20;;;105.30;;
38529;SDS011;24301;54.332;48.386;2022-12-18T04:53:55;782.73;;;100.53;;
38529;SDS011;24301;54.332;48.386;2022-12-18T04:56:21;434.50;;;51.53;;
38529;SDS011;24301;54.332;48.386;2022-12-18T04:58:47;422.93;;;44.70;;
38529;SDS011;24301;54.332;48.386;2022-12-18T05:01:13;555.83;;;66.20;;
38529;SDS011;24301;54.332;48.386;2022-12-18T05:03:40;391.00;;;41.97;;
38529;SDS011;24301;54.332;48.386;2022-12-18T05:06:06;362.33;;;39.70;;
38529;SDS011;24301;54.332;48.386;2022-12-18T05:08:32;216.43;;;24.83;;
38529;SDS011;24301;54.332;48.386;2022-12-18T05:10:59;58.93;;;9.03;;
38529;SDS011;24301;54.332;48.386;2022-12-18T05:13:26;13.13;;;4.13;;
38529;SDS011;24301;54.332;48.386;2022-12-18T05:15:52;20.80;;;5.80;;
38529;SDS011;24301;54.332;48.386;2022-12-18T05:18:19;69.07;;;9.50;;
38529;SDS011;24301;54.332;48.386;2022-12-18T05:20:45;380.27;;;35.90;;
38529;SDS011;24301;54.332;48.386;2022-12-18T05:23:11;428.60;;;45.70;;
38529;SDS011;24301;54.332;48.386;2022-12-18T05:25:37;464.70;;;49.77;;
38529;SDS011;24301;54.332;48.386;2022-12-18T05:28:03;72.73;;;12.50;;
38529;SDS011;24301;54.332;48.386;2022-12-18T05:30:28;9.07;;;5.80;;
38529;SDS011;24301;54.332;48.386;2022-12-18T05:32:54;10.30;;;5.43;;
38529;SDS011;24301;54.332;48.386;2022-12-18T05:35:20;7.83;;;4.63;;
38529;SDS011;24301;54.332;48.386;2022-12-18T05:37:47;10.10;;;5.27;;
38529;SDS011;24301;54.332;48.386;2022-12-18T05:40:12;8.50;;;4.43;;
38529;SDS011;24301;54.332;48.386;2022-12-18T05:42:38;10.20;;;4.97;;
38529;SDS011;24301;54.332;48.386;2022-12-18T05:45:04;6.87;;;3.83;;
38529;SDS011;24301;54.332;48.386;2022-12-18T05:47:31;6.80;;;4.00;;
38529;SDS011;24301;54.332;48.386;2022-12-18T05:49:56;8.63;;;5.20;;
38529;SDS011;24301;54.332;48.386;2022-12-18T05:52:22;9.03;;;4.90;;
38529;SDS011;24301;54.332;48.386;2022-12-18T05:54:48;7.70;;;4.70;;
38529;SDS011;24301;54.332;48.386;2022-12-18T05:57:14;10.70;;;5.73;;
38529;SDS011;24301;54.332;48.386;2022-12-18T05:59:40;9.13;;;5.80;;
38529;SDS011;24301;54.332;48.386;2022-12-18T06:02:06;10.73;;;6.33;;
38529;SDS011;24301;54.332;48.386;2022-12-18T06:04:32;11.37;;;6.43;;
38529;SDS011;24301;54.332;48.386;2022-12-18T06:06:58;11.30;;;6.40;;
38529;SDS011;24301;54.332;48.386;2022-12-18T06:09:24;10.30;;;7.23;;
38529;SDS011;24301;54.332;48.386;2022-12-18T06:11:51;10.80;;;6.20;;
38529;SDS011;24301;54.332;48.386;2022-12-18T06:14:17;13.33;;;7.47;;
38529;SDS011;24301;54.332;48.386;2022-12-18T06:16:43;10.20;;;6.00;;
38529;SDS011;24301;54.332;48.386;2022-12-18T06:19:13;12.00;;;6.97;;
38529;SDS011;24301;54.332;48.386;2022-12-18T06:21:40;9.90;;;5.90;;
38529;SDS011;24301;54.332;48.386;2022-12-18T06:24:06;11.00;;;6.90;;
38529;SDS011;24301;54.332;48.386;2022-12-18T06:26:32;14.43;;;7.43;;
38529;SDS011;24301;54.332;48.386;2022-12-18T06:28:59;13.93;;;8.53;;
38529;SDS011;24301;54.332;48.386;2022-12-18T06:31:25;9.97;;;6.00;;
38529;SDS011;24301;54.332;48.386;2022-12-18T06:33:50;13.30;;;7.73;;
38529;SDS011;24301;54.332;48.386;2022-12-18T06:36:16;13.07;;;7.63;;
38529;SDS011;24301;54.332;48.386;2022-12-18T06:38:43;13.13;;;7.50;;
38529;SDS011;24301;54.332;48.386;2022-12-18T06:41:14;14.47;;;7.97;;
38529;SDS011;24301;54.332;48.386;2022-12-18T06:43:45;13.90;;;7.97;;
38529;SDS011;24301;54.332;48.386;2022-12-18T06:46:11;12.83;;;7.87;;
38529;SDS011;24301;54.332;48.386;2022-12-18T06:48:37;14.73;;;8.70;;
38529;SDS011;24301;54.332;48.386;2022-12-18T06:51:04;14.33;;;8.50;;
38529;SDS011;24301;54.332;48.386;2022-12-18T06:53:31;17.43;;;10.83;;
38529;SDS011;24301;54.332;48.386;2022-12-18T06:56:04;16.80;;;9.63;;
38529;SDS011;24301;54.332;48.386;2022-12-18T06:58:32;15.27;;;9.80;;
38529;SDS011;24301;54.332;48.386;2022-12-18T07:01:04;15.67;;;10.10;;
38529;SDS011;24301;54.332;48.386;2022-12-18T07:05:57;15.27;;;9.30;;
38529;SDS011;24301;54.332;48.386;2022-12-18T07:08:23;21.60;;;10.03;;
38529;SDS011;24301;54.332;48.386;2022-12-18T07:10:49;22.17;;;12.53;;
38529;SDS011;24301;54.332;48.386;2022-12-18T07:13:16;21.20;;;11.80;;
38529;SDS011;24301;54.332;48.386;2022-12-18T07:15:43;18.87;;;11.37;;
38529;SDS011;24301;54.332;48.386;2022-12-18T07:18:09;19.97;;;12.00;;
38529;SDS011;24301;54.332;48.386;2022-12-18T07:20:35;21.57;;;14.43;;
38529;SDS011;24301;54.332;48.386;2022-12-18T07:23:02;22.00;;;12.57;;
38529;SDS011;24301;54.332;48.386;2022-12-18T07:25:33;26.57;;;12.53;;
38529;SDS011;24301;54.332;48.386;2022-12-18T07:28:02;19.73;;;11.27;;
38529;SDS011;24301;54.332;48.386;2022-12-18T07:30:28;24.13;;;13.83;;
38529;SDS011;24301;54.332;48.386;2022-12-18T07:32:54;24.43;;;14.63;;
38529;SDS011;24301;54.332;48.386;2022-12-18T07:35:20;20.87;;;12.23;;
38529;SDS011;24301;54.332;48.386;2022-12-18T07:37:46;23.97;;;14.27;;
38529;SDS011;24301;54.332;48.386;2022-12-18T07:40:12;22.10;;;14.30;;
38529;SDS011;24301;54.332;48.386;2022-12-18T07:42:38;20.90;;;12.10;;
38529;SDS011;24301;54.332;48.386;2022-12-18T07:45:04;26.80;;;14.27;;
38529;SDS011;24301;54.332;48.386;2022-12-18T07:47:30;22.53;;;13.23;;
38529;SDS011;24301;54.332;48.386;2022-12-18T07:49:59;25.70;;;13.60;;
38529;SDS011;24301;54.332;48.386;2022-12-18T07:52:25;21.43;;;12.27;;
38529;SDS011;24301;54.332;48.386;2022-12-18T07:54:51;21.77;;;13.37;;
38529;SDS011;24301;54.332;48.386;2022-12-18T07:57:17;24.17;;;14.57;;
38529;SDS011;24301;54.332;48.386;2022-12-18T07:59:43;22.80;;;12.83;;
38529;SDS011;24301;54.332;48.386;2022-12-18T08:02:09;23.20;;;13.30;;
38529;SDS011;24301;54.332;48.386;2022-12-18T08:04:35;22.43;;;13.10;;
38529;SDS011;24301;54.332;48.386;2022-12-18T08:07:01;21.53;;;12.67;;
38529;SDS011;24301;54.332;48.386;2022-12-18T08:09:27;22.87;;;13.77;;
38529;SDS011;24301;54.332;48.386;2022-12-18T08:11:52;22.13;;;12.70;;
38529;SDS011;24301;54.332;48.386;2022-12-18T08:14:18;20.00;;;11.47;;
38529;SDS011;24301;54.332;48.386;2022-12-18T08:16:44;19.63;;;10.20;;
38529;SDS011;24301;54.332;48.386;2022-12-18T08:19:10;20.20;;;11.07;;
38529;SDS011;24301;54.332;48.386;2022-12-18T08:21:36;18.67;;;11.43;;
38529;SDS011;24301;54.332;48.386;2022-12-18T08:24:02;20.67;;;11.80;;
38529;SDS011;24301;54.332;48.386;2022-12-18T08:26:30;23.93;;;12.10;;
38529;SDS011;24301;54.332;48.386;2022-12-18T08:28:56;23.03;;;12.63;;
38529;SDS011;24301;54.332;48.386;2022-12-18T08:31:24;21.07;;;12.07;;
38529;SDS011;24301;54.332;48.386;2022-12-18T08:33:51;22.70;;;13.97;;
38529;SDS011;24301;54.332;48.386;2022-12-18T08:36:19;21.27;;;12.83;;
38529;SDS011;24301;54.332;48.386;2022-12-18T08:38:45;14.30;;;8.37;;
38529;SDS011;24301;54.332;48.386;2022-12-18T08:41:12;17.20;;;8.87;;
38529;SDS011;24301;54.332;48.386;2022-12-18T08:43:40;17.97;;;9.87;;
38529;SDS011;24301;54.332;48.386;2022-12-18T08:46:25;15.40;;;9.23;;
38529;SDS011;24301;54.332;48.386;2022-12-18T08:48:53;16.07;;;9.20;;
38529;SDS011;24301;54.332;48.386;2022-12-18T08:51:20;18.50;;;9.63;;
38529;SDS011;24301;54.332;48.386;2022-12-18T08:53:46;16.13;;;8.67;;
38529;SDS011;24301;54.332;48.386;2022-12-18T08:56:13;17.60;;;11.03;;
38529;SDS011;24301;54.332;48.386;2022-12-18T08:58:40;14.47;;;8.80;;
38529;SDS011;24301;54.332;48.386;2022-12-18T09:01:07;14.17;;;8.83;;
38529;SDS011;24301;54.332;48.386;2022-12-18T09:03:36;12.07;;;7.37;;
38529;SDS011;24301;54.332;48.386;2022-12-18T09:06:03;11.10;;;7.93;;
38529;SDS011;24301;54.332;48.386;2022-12-18T09:08:29;11.53;;;7.30;;
38529;SDS011;24301;54.332;48.386;2022-12-18T09:10:55;11.17;;;6.70;;
38529;SDS011;24301;54.332;48.386;2022-12-18T09:13:21;11.37;;;7.00;;
38529;SDS011;24301;54.332;48.386;2022-12-18T09:15:49;11.63;;;6.83;;
38529;SDS011;24301;54.332;48.386;2022-12-18T09:18:17;10.43;;;7.30;;
38529;SDS011;24301;54.332;48.386;2022-12-18T09:20:45;12.60;;;7.93;;
38529;SDS011;24301;54.332;48.386;2022-12-18T09:23:11;16.43;;;8.77;;
38529;SDS011;24301;54.332;48.386;2022-12-18T09:25:38;13.17;;;9.50;;
38529;SDS011;24301;54.332;48.386;2022-12-18T09:28:12;13.63;;;8.50;;
38529;SDS011;24301;54.332;48.386;2022-12-18T09:30:43;15.57;;;8.47;;
38529;SDS011;24301;54.332;48.386;2022-12-18T09:33:11;14.27;;;8.70;;
38529;SDS011;24301;54.332;48.386;2022-12-18T09:35:37;15.83;;;8.30;;
38529;SDS011;24301;54.332;48.386;2022-12-18T09:38:04;14.27;;;8.47;;
38529;SDS011;24301;54.332;48.386;2022-12-18T09:40:35;12.60;;;7.83;;
38529;SDS011;24301;54.332;48.386;2022-12-18T09:43:06;13.97;;;7.80;;
38529;SDS011;24301;54.332;48.386;2022-12-18T09:45:39;14.57;;;8.03;;
38529;SDS011;24301;54.332;48.386;2022-12-18T09:51:03;16.53;;;8.77;;
38529;SDS011;24301;54.332;48.386;2022-12-18T09:54:13;15.90;;;10.23;;
38529;SDS011;24301;54.332;48.386;2022-12-18T09:56:41;14.73;;;10.00;;
38529;SDS011;24301;54.332;48.386;2022-12-18T09:59:20;14.90;;;9.80;;
38529;SDS011;24301;54.332;48.386;2022-12-18T10:01:52;15.60;;;9.55;;
38529;SDS011;24301;54.332;48.386;2022-12-18T10:04:18;16.30;;;9.00;;
38529;SDS011;24301;54.332;48.386;2022-12-18T10:10:06;19.33;;;11.07;;
38529;SDS011;24301;54.332;48.386;2022-12-18T10:17:58;17.83;;;11.57;;
38529;SDS011;24301;54.332;48.386;2022-12-18T10:23:58;20.75;;;12.52;;
38529;SDS011;24301;54.332;48.386;2022-12-18T10:26:24;18.77;;;11.33;;
38529;SDS011;24301;54.332;48.386;2022-12-18T10:28:50;17.30;;;10.50;;
38529;SDS011;24301;54.332;48.386;2022-12-18T10:31:20;15.93;;;10.27;;
38529;SDS011;24301;54.332;48.386;2022-12-18T10:33:47;18.13;;;11.33;;
38529;SDS011;24301;54.332;48.386;2022-12-18T10:36:14;16.47;;;9.27;;
38529;SDS011;24301;54.332;48.386;2022-12-18T10:38:40;17.60;;;11.03;;
38529;SDS011;24301;54.332;48.386;2022-12-18T10:41:23;16.63;;;10.63;;
38529;SDS011;24301;54.332;48.386;2022-12-18T10:44:10;16.83;;;9.70;;
38529;SDS011;24301;54.332;48.386;2022-12-18T10:46:51;14.70;;;9.93;;
38529;SDS011;24301;54.332;48.386;2022-12-18T10:49:22;15.50;;;9.17;;
38529;SDS011;24301;54.332;48.386;2022-12-18T10:51:51;13.23;;;9.23;;
38529;SDS011;24301;54.332;48.386;2022-12-18T10:54:29;14.00;;;9.17;;
38529;SDS011;24301;54.332;48.386;2022-12-18T10:57:16;15.57;;;9.67;;
38529;SDS011;24301;54.332;48.386;2022-12-18T10:59:49;15.77;;;9.27;;
38529;SDS011;24301;54.332;48.386;2022-12-18T11:02:28;13.93;;;9.37;;
38529;SDS011;24301;54.332;48.386;2022-12-18T11:05:01;16.90;;;10.43;;
38529;SDS011;24301;54.332;48.386;2022-12-18T11:10:37;15.17;;;9.70;;
38529;SDS011;24301;54.332;48.386;2022-12-18T11:13:21;15.43;;;9.43;;
38529;SDS011;24301;54.332;48.386;2022-12-18T11:15:50;17.80;;;11.00;;
38529;SDS011;24301;54.332;48.386;2022-12-18T11:20:53;12.77;;;8.90;;
38529;SDS011;24301;54.332;48.386;2022-12-18T11:23:31;17.40;;;8.53;;
38529;SDS011;24301;54.332;48.386;2022-12-18T11:25:58;19.13;;;10.30;;
38529;SDS011;24301;54.332;48.386;2022-12-18T11:28:34;17.67;;;10.03;;
38529;SDS011;24301;54.332;48.386;2022-12-18T11:33:48;13.43;;;8.30;;
38529;SDS011;24301;54.332;48.386;2022-12-18T11:36:38;14.30;;;8.80;;
38529;SDS011;24301;54.332;48.386;2022-12-18T11:44:38;12.00;;;7.90;;
38529;SDS011;24301;54.332;48.386;2022-12-18T11:50:17;11.17;;;7.67;;
38529;SDS011;24301;54.332;48.386;2022-12-18T11:52:47;11.30;;;7.60;;
38529;SDS011;24301;54.332;48.386;2022-12-18T11:55:31;14.17;;;7.90;;
38529;SDS011;24301;54.332;48.386;2022-12-18T11:58:47;11.57;;;7.40;;
38529;SDS011;24301;54.332;48.386;2022-12-18T12:03:55;10.33;;;6.77;;
38529;SDS011;24301;54.332;48.386;2022-12-18T12:14:51;11.38;;;6.55;;
38529;SDS011;24301;54.332;48.386;2022-12-18T12:25:33;10.10;;;6.33;;
38529;SDS011;24301;54.332;48.386;2022-12-18T12:31:29;11.67;;;6.87;;
38529;SDS011;24301;54.332;48.386;2022-12-18T12:37:03;10.53;;;6.27;;
38529;SDS011;24301;54.332;48.386;2022-12-18T12:39:59;10.10;;;7.18;;
38529;SDS011;24301;54.332;48.386;2022-12-18T12:45:40;11.68;;;6.70;;
38529;SDS011;24301;54.332;48.386;2022-12-18T12:48:28;13.27;;;6.93;;
38529;SDS011;24301;54.332;48.386;2022-12-18T12:51:04;13.50;;;7.50;;
38529;SDS011;24301;54.332;48.386;2022-12-18T12:53:37;10.17;;;6.90;;
38529;SDS011;24301;54.332;48.386;2022-12-18T12:56:04;9.63;;;5.87;;
38529;SDS011;24301;54.332;48.386;2022-12-18T13:07:06;10.87;;;5.77;;
38529;SDS011;24301;54.332;48.386;2022-12-18T13:15:46;10.63;;;6.32;;
38529;SDS011;24301;54.332;48.386;2022-12-18T13:18:32;8.97;;;6.30;;
38529;SDS011;24301;54.332;48.386;2022-12-18T13:23:25;10.83;;;6.30;;
38529;SDS011;24301;54.332;48.386;2022-12-18T13:31:13;8.23;;;5.63;;
38529;SDS011;24301;54.332;48.386;2022-12-18T13:36:47;9.10;;;5.63;;
38529;SDS011;24301;54.332;48.386;2022-12-18T13:41:40;6.63;;;5.20;;
38529;SDS011;24301;54.332;48.386;2022-12-18T13:44:11;7.63;;;5.03;;
38529;SDS011;24301;54.332;48.386;2022-12-18T13:46:49;8.37;;;5.43;;
38529;SDS011;24301;54.332;48.386;2022-12-18T13:49:21;7.43;;;5.53;;
38529;SDS011;24301;54.332;48.386;2022-12-18T13:57:00;7.87;;;5.73;;
38529;SDS011;24301;54.332;48.386;2022-12-18T13:59:36;9.63;;;5.70;;
38529;SDS011;24301;54.332;48.386;2022-12-18T14:02:25;10.40;;;7.13;;
38529;SDS011;24301;54.332;48.386;2022-12-18T14:04:50;8.97;;;5.87;;
38529;SDS011;24301;54.332;48.386;2022-12-18T14:07:26;8.57;;;5.97;;
38529;SDS011;24301;54.332;48.386;2022-12-18T14:09:55;9.83;;;7.23;;
38529;SDS011;24301;54.332;48.386;2022-12-18T14:12:24;11.30;;;7.47;;
38529;SDS011;24301;54.332;48.386;2022-12-18T14:18:12;9.27;;;6.77;;
38529;SDS011;24301;54.332;48.386;2022-12-18T14:20:50;11.90;;;7.20;;
38529;SDS011;24301;54.332;48.386;2022-12-18T14:23:51;10.00;;;6.40;;
38529;SDS011;24301;54.332;48.386;2022-12-18T14:26:21;11.23;;;7.43;;
38529;SDS011;24301;54.332;48.386;2022-12-18T14:28:55;11.20;;;7.00;;
38529;SDS011;24301;54.332;48.386;2022-12-18T14:31:43;10.57;;;7.03;;
38529;SDS011;24301;54.332;48.386;2022-12-18T14:34:18;9.57;;;6.93;;
38529;SDS011;24301;54.332;48.386;2022-12-18T14:36:53;9.17;;;6.17;;
38529;SDS011;24301;54.332;48.386;2022-12-18T14:39:21;8.73;;;6.37;;
38529;SDS011;24301;54.332;48.386;2022-12-18T14:41:50;8.33;;;5.73;;
38529;SDS011;24301;54.332;48.386;2022-12-18T14:44:17;7.77;;;5.00;;
38529;SDS011;24301;54.332;48.386;2022-12-18T14:46:44;8.70;;;6.20;;
38529;SDS011;24301;54.332;48.386;2022-12-18T14:49:18;8.77;;;5.43;;
38529;SDS011;24301;54.332;48.386;2022-12-18T14:51:51;8.97;;;5.73;;
38529;SDS011;24301;54.332;48.386;2022-12-18T14:54:22;9.63;;;6.03;;
38529;SDS011;24301;54.332;48.386;2022-12-18T14:56:51;7.90;;;5.50;;
38529;SDS011;24301;54.332;48.386;2022-12-18T14:59:28;9.77;;;6.07;;
38529;SDS011;24301;54.332;48.386;2022-12-18T15:04:28;8.90;;;6.90;;
38529;SDS011;24301;54.332;48.386;2022-12-18T15:07:04;9.47;;;6.13;;
38529;SDS011;24301;54.332;48.386;2022-12-18T15:09:39;9.87;;;6.37;;
38529;SDS011;24301;54.332;48.386;2022-12-18T15:12:22;9.30;;;6.20;;
38529;SDS011;24301;54.332;48.386;2022-12-18T15:14:53;8.50;;;5.20;;
38529;SDS011;24301;54.332;48.386;2022-12-18T15:17:21;10.13;;;6.47;;
38529;SDS011;24301;54.332;48.386;2022-12-18T15:19:49;9.17;;;6.23;;
38529;SDS011;24301;54.332;48.386;2022-12-18T15:24:43;7.97;;;5.47;;
38529;SDS011;24301;54.332;48.386;2022-12-18T15:32:35;9.80;;;6.37;;
38529;SDS011;24301;54.332;48.386;2022-12-18T15:35:12;10.83;;;6.43;;
38529;SDS011;24301;54.332;48.386;2022-12-18T15:37:41;10.43;;;7.80;;
38529;SDS011;24301;54.332;48.386;2022-12-18T15:40:08;9.00;;;5.70;;
38529;SDS011;24301;54.332;48.386;2022-12-18T15:42:38;10.03;;;6.77;;
38529;SDS011;24301;54.332;48.386;2022-12-18T15:45:22;10.60;;;6.43;;
38529;SDS011;24301;54.332;48.386;2022-12-18T15:47:48;10.43;;;6.93;;
38529;SDS011;24301;54.332;48.386;2022-12-18T15:50:14;10.37;;;6.90;;
38529;SDS011;24301;54.332;48.386;2022-12-18T15:52:43;9.70;;;6.60;;
38529;SDS011;24301;54.332;48.386;2022-12-18T15:55:13;8.70;;;6.03;;
38529;SDS011;24301;54.332;48.386;2022-12-18T15:57:59;9.63;;;6.13;;
38529;SDS011;24301;54.332;48.386;2022-12-18T16:00:25;10.00;;;7.27;;
38529;SDS011;24301;54.332;48.386;2022-12-18T16:02:51;9.10;;;6.50;;
38529;SDS011;24301;54.332;48.386;2022-12-18T16:05:18;10.73;;;6.37;;
38529;SDS011;24301;54.332;48.386;2022-12-18T16:07:45;12.47;;;7.67;;
38529;SDS011;24301;54.332;48.386;2022-12-18T16:10:12;8.77;;;6.43;;
38529;SDS011;24301;54.332;48.386;2022-12-18T16:12:38;10.17;;;6.33;;
38529;SDS011;24301;54.332;48.386;2022-12-18T16:15:05;12.70;;;7.07;;
38529;SDS011;24301;54.332;48.386;2022-12-18T16:17:31;11.00;;;6.87;;
38529;SDS011;24301;54.332;48.386;2022-12-18T16:19:57;9.60;;;6.27;;
38529;SDS011;24301;54.332;48.386;2022-12-18T16:22:27;10.53;;;7.27;;
38529;SDS011;24301;54.332;48.386;2022-12-18T16:24:55;10.73;;;7.37;;
38529;SDS011;24301;54.332;48.386;2022-12-18T16:27:22;8.93;;;5.77;;
38529;SDS011;24301;54.332;48.386;2022-12-18T16:29:49;10.00;;;6.90;;
38529;SDS011;24301;54.332;48.386;2022-12-18T16:32:17;9.37;;;6.67;;
38529;SDS011;24301;54.332;48.386;2022-12-18T16:34:44;9.23;;;6.43;;
38529;SDS011;24301;54.332;48.386;2022-12-18T16:37:11;9.07;;;6.87;;
38529;SDS011;24301;54.332;48.386;2022-12-18T16:39:39;10.53;;;6.30;;
38529;SDS011;24301;54.332;48.386;2022-12-18T16:42:10;9.17;;;6.47;;
38529;SDS011;24301;54.332;48.386;2022-12-18T16:47:06;10.77;;;8.13;;
38529;SDS011;24301;54.332;48.386;2022-12-18T16:49:31;9.20;;;6.73;;
38529;SDS011;24301;54.332;48.386;2022-12-18T16:51:57;9.70;;;6.63;;
38529;SDS011;24301;54.332;48.386;2022-12-18T16:54:23;8.77;;;7.27;;
38529;SDS011;24301;54.332;48.386;2022-12-18T16:56:50;8.00;;;6.03;;
38529;SDS011;24301;54.332;48.386;2022-12-18T16:59:17;9.30;;;7.13;;
38529;SDS011;24301;54.332;48.386;2022-12-18T17:01:43;9.13;;;7.07;;
38529;SDS011;24301;54.332;48.386;2022-12-18T17:04:09;8.73;;;6.63;;
38529;SDS011;24301;54.332;48.386;2022-12-18T17:06:38;8.97;;;6.97;;